Time;durP1;ratioP1;P1;durP2;ratioP2;P2;SDS_P1;SDS_P2;PMS_P1;PMS_P2;Temp;Humidity;BMP_temperature;BMP_pressure;BME280_temperature;BME280_humidity;BME280_pressure;Samples;Min_cycle;Max_cycle;Signal;HPM_P1;HPM_P2
2023/04/12 00:00:41;;;;;;;3.58;1.05;;;9.50;99.90;;;;;;5011762;28;20025;-83
2023/04/12 00:03:09;;;;;;;1.88;0.22;;;9.50;99.90;;;;;;5011891;28;20397;-84
2023/04/12 00:05:36;;;;;;;1.33;0.20;;;9.50;99.90;;;;;;5028343;28;20059;-83
2023/04/12 00:08:03;;;;;;;2.95;0.40;;;9.50;99.90;;;;;;5027276;28;20033;-85
2023/04/12 00:10:32;;;;;;;2.35;0.20;;;9.40;99.90;;;;;;5007106;28;20043;-84
2023/04/12 00:12:58;;;;;;;3.10;0.30;;;9.50;99.90;;;;;;5007828;28;20025;-84
2023/04/12 00:15:23;;;;;;;2.53;0.30;;;9.40;99.90;;;;;;5009138;28;20044;-84
2023/04/12 00:17:49;;;;;;;3.47;0.32;;;9.40;99.90;;;;;;5010407;28;20336;-85
2023/04/12 00:20:15;;;;;;;3.95;0.32;;;9.40;99.90;;;;;;5025493;28;20039;-87
2023/04/12 00:22:41;;;;;;;2.67;0.20;;;9.40;99.90;;;;;;5009594;28;20080;-84
2023/04/12 00:25:08;;;;;;;3.35;0.32;;;9.30;99.90;;;;;;5023656;28;20029;-84
2023/04/12 00:27:33;;;;;;;2.75;0.30;;;9.30;99.90;;;;;;5022920;28;20033;-84
2023/04/12 00:29:59;;;;;;;3.28;0.30;;;9.30;99.90;;;;;;5027951;28;20072;-83
2023/04/12 00:32:26;;;;;;;7.22;0.40;;;9.20;99.90;;;;;;5009702;28;20493;-85
2023/04/12 00:34:52;;;;;;;2.80;0.32;;;9.10;99.90;;;;;;5008108;28;20076;-84
2023/04/12 00:37:19;;;;;;;4.93;0.30;;;9.10;99.90;;;;;;5007067;28;20029;-85
2023/04/12 00:39:45;;;;;;;2.80;0.30;;;9.00;99.90;;;;;;5027392;28;20527;-86
2023/04/12 00:42:11;;;;;;;4.63;0.20;;;9.00;99.90;;;;;;5009838;28;20086;-83
2023/04/12 00:44:37;;;;;;;2.42;0.30;;;9.00;99.90;;;;;;5008525;28;20041;-87
2023/04/12 00:47:04;;;;;;;2.00;0.30;;;9.00;99.90;;;;;;5008517;28;20090;-86
2023/04/12 00:49:30;;;;;;;1.73;0.20;;;9.00;99.90;;;;;;5024534;28;20035;-84
2023/04/12 00:52:02;;;;;;;3.15;0.30;;;8.90;99.90;;;;;;5022647;28;20038;-87
2023/04/12 00:54:31;;;;;;;2.83;0.20;;;9.00;99.90;;;;;;5028341;28;20033;-84
2023/04/12 00:56:57;;;;;;;1.50;0.20;;;8.90;99.90;;;;;;5012183;28;20544;-85
2023/04/12 00:59:23;;;;;;;2.95;0.20;;;8.80;99.90;;;;;;5034416;28;20120;-84
2023/04/12 01:01:49;;;;;;;1.73;0.20;;;8.80;99.90;;;;;;5037867;28;20113;-85
2023/04/12 01:04:15;;;;;;;3.45;0.30;;;8.80;99.90;;;;;;5036444;28;20045;-84
2023/04/12 01:06:47;;;;;;;2.05;0.20;;;8.80;99.90;;;;;;5037519;28;20016;-84
2023/04/12 01:09:26;;;;;;;4.38;0.30;;;8.80;99.90;;;;;;5023762;28;20021;-84
2023/04/12 01:12:19;;;;;;;2.15;0.20;;;8.80;99.90;;;;;;5018827;28;20040;-84
2023/04/12 01:15:07;;;;;;;3.33;0.20;;;8.70;99.90;;;;;;5032772;28;20029;-83
2023/04/12 01:17:40;;;;;;;2.15;0.20;;;8.80;99.90;;;;;;5017758;28;20022;-84
2023/04/12 01:20:22;;;;;;;2.22;0.20;;;8.70;99.90;;;;;;5034123;28;20037;-84
2023/04/12 01:22:57;;;;;;;0.95;0.20;;;8.70;99.90;;;;;;5031304;28;20034;-85
2023/04/12 01:25:52;;;;;;;4.25;0.30;;;8.70;99.90;;;;;;5015429;28;20083;-84
2023/04/12 01:28:31;;;;;;;1.48;0.20;;;8.60;99.90;;;;;;5020700;28;20076;-85
2023/04/12 01:30:58;;;;;;;2.03;0.20;;;8.60;99.90;;;;;;5031002;28;20080;-84
2023/04/12 01:33:30;;;;;;;2.05;0.20;;;8.70;99.90;;;;;;5035164;28;20055;-84
2023/04/12 01:35:58;;;;;;;1.98;0.20;;;8.70;99.90;;;;;;5017592;28;20501;-84
2023/04/12 01:38:24;;;;;;;2.78;0.35;;;8.70;99.90;;;;;;5018001;28;20547;-85
2023/04/12 01:40:50;;;;;;;2.65;0.30;;;8.60;99.90;;;;;;5038865;28;20123;-83
2023/04/12 01:43:17;;;;;;;1.80;0.20;;;8.60;99.90;;;;;;5035366;28;20061;-86
2023/04/12 01:45:43;;;;;;;2.85;0.20;;;8.60;99.90;;;;;;5016109;28;20092;-83
2023/04/12 01:48:10;;;;;;;4.30;0.20;;;8.50;99.90;;;;;;5016003;28;20072;-85
2023/04/12 01:50:55;;;;;;;1.95;0.20;;;8.50;99.90;;;;;;5020090;28;20021;-85
2023/04/12 01:53:27;;;;;;;2.33;0.30;;;8.50;99.90;;;;;;5037492;28;20029;-86
2023/04/12 01:55:59;;;;;;;2.65;0.20;;;8.50;99.90;;;;;;5034794;28;20025;-87
2023/04/12 01:58:27;;;;;;;2.67;0.20;;;8.50;99.90;;;;;;5027951;28;20053;-85
2023/04/12 02:00:56;;;;;;;2.20;0.20;;;8.40;99.90;;;;;;5027108;28;20398;-86
2023/04/12 02:03:22;;;;;;;1.40;0.20;;;8.40;99.90;;;;;;5029200;28;20505;-85
2023/04/12 02:05:50;;;;;;;2.38;0.20;;;8.40;99.90;;;;;;5027930;28;20068;-84
2023/04/12 02:08:19;;;;;;;2.20;0.20;;;8.40;99.90;;;;;;5011531;28;20375;-86
2023/04/12 02:10:45;;;;;;;2.28;0.20;;;8.30;99.90;;;;;;5013881;28;20397;-85
2023/04/12 02:13:16;;;;;;;1.02;0.10;;;8.30;99.90;;;;;;5028615;28;20078;-87
2023/04/12 02:15:43;;;;;;;1.38;0.17;;;8.30;99.90;;;;;;5012154;28;20026;-85
2023/04/12 02:18:10;;;;;;;1.80;0.20;;;8.30;99.90;;;;;;5043362;28;20032;-86
2023/04/12 02:20:36;;;;;;;2.67;0.30;;;8.30;99.90;;;;;;5013329;28;20030;-87
2023/04/12 02:23:02;;;;;;;1.95;0.20;;;8.30;99.90;;;;;;5027668;28;20500;-85
2023/04/12 02:25:27;;;;;;;1.33;0.20;;;8.30;99.90;;;;;;5027473;28;20494;-86
2023/04/12 02:27:53;;;;;;;3.38;0.20;;;8.30;99.90;;;;;;5014123;28;20030;-87
2023/04/12 02:30:19;;;;;;;1.50;0.20;;;8.30;99.90;;;;;;5025983;28;20033;-88
2023/04/12 02:32:51;;;;;;;3.03;0.30;;;8.30;99.90;;;;;;5011589;28;20057;-87
2023/04/12 02:35:23;;;;;;;2.88;0.22;;;8.20;99.90;;;;;;5026374;28;20401;-84
2023/04/12 02:37:54;;;;;;;3.45;0.22;;;8.20;99.90;;;;;;5028557;28;20030;-86
2023/04/12 02:40:22;;;;;;;1.63;0.20;;;8.20;99.90;;;;;;5011592;28;20021;-87
2023/04/12 02:42:47;;;;;;;2.42;0.20;;;8.20;99.90;;;;;;5010290;28;20041;-85
2023/04/12 02:45:14;;;;;;;2.55;0.20;;;8.20;99.90;;;;;;5014081;28;20021;-87
2023/04/12 02:47:40;;;;;;;1.95;0.20;;;8.20;99.90;;;;;;5029320;28;20029;-85
2023/04/12 02:50:08;;;;;;;2.05;0.20;;;8.20;99.90;;;;;;5025663;28;20486;-85
2023/04/12 02:52:45;;;;;;;1.17;0.20;;;8.20;99.90;;;;;;5011509;28;20053;-87
2023/04/12 02:55:11;;;;;;;1.13;0.20;;;8.10;99.90;;;;;;5029263;28;20018;-87
2023/04/12 02:57:37;;;;;;;2.08;0.20;;;8.10;99.90;;;;;;5015009;28;20494;-86
2023/04/12 03:00:15;;;;;;;4.00;0.43;;;8.20;99.90;;;;;;5032953;28;20541;-86
2023/04/12 03:02:48;;;;;;;2.50;0.40;;;8.10;99.90;;;;;;5022116;28;20036;-83
2023/04/12 03:05:19;;;;;;;0.70;0.20;;;8.10;99.90;;;;;;5016966;28;20122;-87
2023/04/12 03:07:45;;;;;;;2.38;0.30;;;8.10;99.90;;;;;;5018251;28;20034;-85
2023/04/12 03:10:12;;;;;;;2.60;0.28;;;8.10;99.90;;;;;;5017856;28;20033;-87
2023/04/12 03:12:42;;;;;;;2.55;0.30;;;8.10;99.90;;;;;;5035321;28;20029;-85
2023/04/12 03:15:18;;;;;;;2.40;0.63;;;8.10;99.90;;;;;;5014692;28;20029;-86
2023/04/12 03:17:47;;;;;;;1.83;0.20;;;8.10;99.90;;;;;;5028988;28;20033;-87
2023/04/12 03:20:16;;;;;;;1.42;0.20;;;8.10;99.90;;;;;;5034130;28;20045;-87
2023/04/12 03:22:47;;;;;;;2.80;0.20;;;8.10;99.90;;;;;;5018037;28;20047;-85
2023/04/12 03:25:13;;;;;;;2.47;0.30;;;8.10;99.90;;;;;;5021305;28;20116;-86
2023/04/12 03:27:44;;;;;;;2.72;0.20;;;8.10;99.90;;;;;;5015982;28;20389;-88
2023/04/12 03:30:30;;;;;;;1.05;0.20;;;8.10;99.90;;;;;;5032280;28;20038;-86
2023/04/12 03:32:56;;;;;;;2.25;0.25;;;8.10;99.90;;;;;;5021805;28;20523;-87
2023/04/12 03:35:22;;;;;;;3.67;0.30;;;8.10;99.90;;;;;;5032442;28;20030;-85
2023/04/12 03:37:50;;;;;;;2.05;0.20;;;8.10;99.90;;;;;;5016945;28;20044;-84
2023/04/12 03:40:16;;;;;;;3.63;0.47;;;8.10;99.90;;;;;;5030581;28;20022;-87
2023/04/12 03:42:48;;;;;;;3.00;0.20;;;8.10;99.90;;;;;;5015427;28;20521;-86
2023/04/12 03:45:14;;;;;;;2.20;0.30;;;8.10;99.90;;;;;;5018324;28;20041;-86
2023/04/12 03:47:44;;;;;;;1.35;0.30;;;8.10;99.90;;;;;;5012122;28;20029;-86
2023/04/12 03:50:10;;;;;;;2.63;0.20;;;8.10;99.90;;;;;;5021633;28;20082;-85
2023/04/12 03:52:37;;;;;;;1.20;0.20;;;8.10;99.90;;;;;;5025596;28;20028;-86
2023/04/12 03:55:06;;;;;;;3.20;0.30;;;8.10;99.90;;;;;;5036830;28;20500;-87
2023/04/12 03:57:32;;;;;;;3.00;0.20;;;8.10;99.90;;;;;;5012875;28;20444;-86
2023/04/12 03:59:58;;;;;;;1.70;0.20;;;8.10;99.90;;;;;;5025958;28;20163;-87
2023/04/12 04:02:27;;;;;;;3.50;0.40;;;8.10;99.90;;;;;;5009710;28;20053;-86
2023/04/12 04:04:57;;;;;;;3.83;0.30;;;8.10;99.90;;;;;;5008154;28;20115;-86
2023/04/12 04:07:26;;;;;;;2.22;0.20;;;8.00;99.90;;;;;;5008533;28;20393;-85
2023/04/12 04:09:54;;;;;;;1.30;0.20;;;8.00;99.90;;;;;;5011469;28;20032;-87
2023/04/12 04:12:21;;;;;;;1.08;0.28;;;8.00;99.90;;;;;;5022320;28;20080;-84
2023/04/12 04:14:50;;;;;;;1.27;0.20;;;8.00;99.90;;;;;;5009495;28;20021;-85
2023/04/12 04:17:26;;;;;;;1.20;0.20;;;8.00;99.90;;;;;;5013152;28;20583;-85
2023/04/12 04:19:53;;;;;;;2.03;0.20;;;8.00;99.90;;;;;;5008658;28;20026;-86
2023/04/12 04:22:20;;;;;;;1.77;0.20;;;8.00;99.90;;;;;;5026372;28;20052;-86
2023/04/12 04:24:49;;;;;;;1.23;0.30;;;8.00;99.90;;;;;;5009217;28;20034;-86
2023/04/12 04:27:15;;;;;;;1.63;0.30;;;8.00;99.90;;;;;;5011655;28;20085;-86
2023/04/12 04:29:44;;;;;;;1.13;0.20;;;7.90;99.90;;;;;;5009197;28;20026;-87
2023/04/12 04:32:12;;;;;;;2.22;0.30;;;7.90;99.90;;;;;;5025782;28;20103;-85
2023/04/12 04:34:39;;;;;;;2.45;0.77;;;7.90;99.90;;;;;;5009490;28;20025;-85
2023/04/12 04:37:09;;;;;;;1.90;0.10;;;7.90;99.90;;;;;;5011082;28;20080;-87
2023/04/12 04:39:36;;;;;;;3.38;0.20;;;7.90;99.90;;;;;;5010388;28;20018;-86
2023/04/12 04:42:05;;;;;;;1.05;0.20;;;7.90;99.90;;;;;;5007351;28;20091;-84
2023/04/12 04:44:37;;;;;;;2.63;0.20;;;7.90;99.90;;;;;;5024770;28;20022;-86
2023/04/12 04:47:07;;;;;;;1.80;0.30;;;7.80;99.90;;;;;;5025013;28;20056;-85
2023/04/12 04:49:33;;;;;;;1.42;0.20;;;7.80;99.90;;;;;;5007129;28;20557;-84
2023/04/12 04:52:05;;;;;;;2.20;0.20;;;7.80;99.90;;;;;;5042392;28;20052;-85
2023/04/12 04:54:31;;;;;;;1.17;0.20;;;7.80;99.90;;;;;;5007798;28;20037;-86
2023/04/12 04:56:58;;;;;;;0.95;0.20;;;7.80;99.90;;;;;;5015334;28;20099;-86
2023/04/12 04:59:24;;;;;;;2.13;0.20;;;7.80;99.90;;;;;;5032659;28;20036;-87
2023/04/12 05:01:54;;;;;;;2.00;0.28;;;7.80;99.90;;;;;;5030443;28;20025;-85
2023/04/12 05:04:20;;;;;;;1.65;0.20;;;7.80;99.90;;;;;;5032385;28;20135;-85
2023/04/12 05:06:46;;;;;;;2.55;0.20;;;7.80;99.90;;;;;;5031925;28;20025;-86
2023/04/12 05:09:16;;;;;;;2.13;0.20;;;7.80;99.90;;;;;;5034222;28;20094;-86
2023/04/12 05:11:48;;;;;;;0.80;0.20;;;7.80;99.90;;;;;;5064438;28;20115;-86
2023/04/12 05:14:14;;;;;;;1.27;0.20;;;7.80;99.90;;;;;;5030744;28;20140;-84
2023/04/12 05:16:40;;;;;;;1.50;0.20;;;7.90;99.90;;;;;;5031037;28;20028;-85
2023/04/12 05:19:06;;;;;;;0.70;0.20;;;7.90;99.90;;;;;;5047140;28;20031;-84
2023/04/12 05:21:33;;;;;;;1.58;0.20;;;7.80;99.90;;;;;;5032932;28;20487;-87
2023/04/12 05:23:59;;;;;;;1.17;0.20;;;7.80;99.90;;;;;;5021821;28;20052;-85
2023/04/12 05:26:25;;;;;;;0.95;0.20;;;7.80;99.90;;;;;;5018079;28;20027;-86
2023/04/12 05:28:52;;;;;;;1.27;0.20;;;7.90;99.90;;;;;;5019100;28;20086;-85
2023/04/12 05:31:19;;;;;;;0.73;0.20;;;7.90;99.90;;;;;;5047243;28;20270;-84
2023/04/12 05:33:47;;;;;;;2.00;0.20;;;7.90;99.90;;;;;;5048241;28;20024;-85
2023/04/12 05:36:13;;;;;;;1.52;0.20;;;7.90;99.90;;;;;;5033422;28;20044;-86
2023/04/12 05:38:38;;;;;;;2.20;0.77;;;7.90;99.90;;;;;;5048296;28;20052;-86
2023/04/12 05:41:10;;;;;;;1.95;0.30;;;7.80;99.90;;;;;;5033670;28;20040;-84
2023/04/12 05:43:36;;;;;;;0.98;0.20;;;7.90;99.90;;;;;;5049875;28;20108;-85
2023/04/12 05:46:06;;;;;;;0.75;0.20;;;7.90;99.90;;;;;;5035718;28;20025;-85
2023/04/12 05:48:32;;;;;;;0.80;0.20;;;7.90;99.90;;;;;;5033230;28;20028;-85
2023/04/12 05:51:01;;;;;;;1.40;0.30;;;7.90;99.90;;;;;;5041933;28;20028;-86
2023/04/12 05:53:28;;;;;;;1.73;0.20;;;7.90;99.90;;;;;;5053337;28;20078;-83
2023/04/12 05:55:55;;;;;;;2.80;0.30;;;7.90;99.90;;;;;;5033505;28;20032;-86
2023/04/12 05:58:21;;;;;;;0.80;0.32;;;7.90;99.90;;;;;;5036674;28;20040;-85
2023/04/12 06:00:53;;;;;;;0.82;0.30;;;7.90;99.90;;;;;;5046987;28;20078;-86
2023/04/12 06:03:18;;;;;;;0.70;0.20;;;7.90;99.90;;;;;;5050378;28;20037;-87
2023/04/12 06:05:44;;;;;;;1.73;0.30;;;7.90;99.90;;;;;;5051767;28;20108;-85
2023/04/12 06:08:11;;;;;;;1.92;0.30;;;7.90;99.90;;;;;;5053569;28;20040;-86
2023/04/12 06:10:40;;;;;;;0.63;0.20;;;7.90;99.90;;;;;;5032241;28;20052;-86
2023/04/12 06:13:05;;;;;;;1.27;0.20;;;7.90;99.90;;;;;;5052331;28;20512;-85
2023/04/12 06:15:32;;;;;;;1.42;0.20;;;7.90;99.90;;;;;;5033359;28;20464;-86
2023/04/12 06:17:59;;;;;;;1.50;0.30;;;7.90;99.90;;;;;;5052725;28;20073;-86
2023/04/12 06:20:25;;;;;;;1.25;0.20;;;7.90;99.90;;;;;;5037438;28;20081;-85
2023/04/12 06:22:51;;;;;;;2.22;0.30;;;7.90;99.90;;;;;;5036008;28;20036;-87
2023/04/12 06:25:16;;;;;;;1.20;0.30;;;7.90;99.90;;;;;;5033057;28;20031;-85
2023/04/12 06:27:44;;;;;;;1.05;0.30;;;7.90;99.90;;;;;;5032482;28;20036;-86
2023/04/12 06:30:12;;;;;;;1.50;0.30;;;7.90;99.90;;;;;;5052557;28;20016;-86
2023/04/12 06:32:38;;;;;;;1.02;0.30;;;7.90;99.90;;;;;;5049548;28;20056;-87
2023/04/12 06:35:05;;;;;;;1.17;0.30;;;7.90;99.90;;;;;;5079305;28;20039;-87
2023/04/12 06:37:31;;;;;;;0.95;0.22;;;7.90;99.90;;;;;;5035748;28;20103;-88
2023/04/12 06:39:57;;;;;;;1.45;0.30;;;7.90;99.90;;;;;;5034920;28;20564;-88
2023/04/12 06:42:23;;;;;;;0.82;0.20;;;7.90;99.90;;;;;;5032536;28;20060;-85
2023/04/12 06:44:49;;;;;;;0.93;0.20;;;7.90;99.90;;;;;;5051989;28;20065;-86
2023/04/12 06:47:14;;;;;;;1.60;0.30;;;8.00;99.90;;;;;;5067392;28;20412;-86
2023/04/12 06:49:40;;;;;;;1.13;0.20;;;8.00;99.90;;;;;;5062158;28;20017;-86
2023/04/12 06:52:06;;;;;;;0.95;0.25;;;8.00;99.90;;;;;;5035024;28;20032;-86
2023/04/12 06:54:35;;;;;;;0.82;0.20;;;8.00;99.90;;;;;;5029021;28;20025;-88
2023/04/12 06:57:01;;;;;;;2.42;0.38;;;8.10;99.90;;;;;;5034996;28;20052;-86
2023/04/12 06:59:28;;;;;;;1.00;0.20;;;8.10;99.90;;;;;;5034002;28;20028;-85
2023/04/12 07:01:53;;;;;;;1.23;0.30;;;8.10;99.90;;;;;;5034507;28;20029;-85
2023/04/12 07:04:19;;;;;;;1.67;0.30;;;8.10;99.90;;;;;;5047742;28;20090;-88
2023/04/12 07:06:45;;;;;;;1.25;0.30;;;8.10;99.90;;;;;;5033349;28;20040;-87
2023/04/12 07:09:11;;;;;;;0.82;0.30;;;8.10;99.90;;;;;;5051724;28;20025;-87
2023/04/12 07:11:37;;;;;;;0.63;0.30;;;8.10;99.90;;;;;;5067138;28;20089;-85
2023/04/12 07:14:02;;;;;;;1.10;0.30;;;8.10;99.90;;;;;;5030314;28;20036;-87
2023/04/12 07:16:31;;;;;;;1.02;0.20;;;8.20;99.90;;;;;;5033920;28;20021;-87
2023/04/12 07:18:58;;;;;;;1.10;0.40;;;8.20;99.90;;;;;;5033864;28;20021;-85
2023/04/12 07:21:26;;;;;;;1.10;0.22;;;8.20;99.90;;;;;;5046390;28;20040;-85
2023/04/12 07:23:52;;;;;;;1.17;0.20;;;8.30;99.90;;;;;;5034374;28;20040;-87
2023/04/12 07:26:18;;;;;;;0.93;0.20;;;8.30;99.90;;;;;;5031205;28;20024;-85
2023/04/12 07:28:44;;;;;;;0.77;0.20;;;8.40;99.90;;;;;;5028627;28;20059;-85
2023/04/12 07:31:09;;;;;;;1.20;0.20;;;8.50;99.90;;;;;;5049429;28;20130;-86
2023/04/12 07:33:36;;;;;;;1.05;0.20;;;8.50;99.90;;;;;;5028591;28;20495;-86
2023/04/12 07:36:02;;;;;;;0.73;0.20;;;8.50;99.90;;;;;;5046563;28;20032;-88
2023/04/12 07:38:28;;;;;;;0.40;0.10;;;8.50;99.90;;;;;;5034885;28;20048;-84
2023/04/12 07:40:56;;;;;;;1.05;0.20;;;8.60;99.90;;;;;;5048105;28;20481;-86
2023/04/12 07:43:22;;;;;;;0.30;0.10;;;8.50;99.90;;;;;;5048839;28;20546;-89
2023/04/12 07:45:48;;;;;;;0.50;0.20;;;8.60;99.90;;;;;;5031961;28;20029;-85
2023/04/12 07:48:14;;;;;;;0.52;0.10;;;8.60;99.90;;;;;;5050643;28;20086;-86
2023/04/12 07:50:40;;;;;;;0.73;0.20;;;8.50;99.90;;;;;;5040315;28;20435;-88
2023/04/12 07:53:21;;;;;;;1.05;0.20;;;8.50;99.90;;;;;;5048392;28;20064;-86
2023/04/12 07:55:47;;;;;;;1.05;0.20;;;8.60;99.90;;;;;;5066743;28;20044;-86
2023/04/12 07:58:13;;;;;;;1.05;0.20;;;8.60;99.90;;;;;;5047161;28;20181;-86
2023/04/12 08:00:39;;;;;;;1.10;0.30;;;8.50;99.90;;;;;;5045758;28;20040;-87
2023/04/12 08:03:05;;;;;;;0.82;0.30;;;8.40;99.90;;;;;;5029722;28;20485;-87
2023/04/12 08:05:30;;;;;;;0.77;0.20;;;8.40;99.90;;;;;;5032554;28;20424;-86
2023/04/12 08:07:56;;;;;;;0.77;0.20;;;8.50;99.90;;;;;;5051977;28;20037;-87
2023/04/12 08:10:22;;;;;;;0.47;0.20;;;8.60;99.90;;;;;;5034775;28;20025;-86
2023/04/12 08:12:48;;;;;;;0.50;0.20;;;8.60;99.90;;;;;;5051062;28;20081;-87
2023/04/12 08:15:13;;;;;;;0.75;0.20;;;8.70;99.90;;;;;;5031804;28;20494;-87
2023/04/12 08:17:42;;;;;;;0.52;0.10;;;8.70;99.90;;;;;;5031590;28;20239;-87
2023/04/12 08:20:08;;;;;;;1.33;0.10;;;8.80;99.90;;;;;;5034110;28;20031;-85
2023/04/12 08:22:34;;;;;;;0.73;0.10;;;8.80;99.90;;;;;;5051073;28;20127;-87
2023/04/12 08:25:00;;;;;;;1.05;0.22;;;8.80;99.90;;;;;;5051444;28;20123;-86
2023/04/12 08:27:28;;;;;;;1.10;0.30;;;8.90;99.90;;;;;;5065626;28;20021;-87
2023/04/12 08:29:54;;;;;;;2.67;0.38;;;9.00;99.90;;;;;;5050909;28;20107;-86
2023/04/12 08:32:20;;;;;;;2.00;0.30;;;8.90;99.90;;;;;;5051534;28;20033;-87
2023/04/12 08:34:46;;;;;;;2.72;0.40;;;9.10;99.90;;;;;;5045282;28;20040;-87
2023/04/12 08:37:11;;;;;;;1.20;0.30;;;9.20;99.90;;;;;;5034523;28;21111;-87
2023/04/12 08:39:37;;;;;;;0.70;0.20;;;9.30;99.90;;;;;;5033807;28;20039;-86
2023/04/12 08:42:03;;;;;;;3.42;0.50;;;9.50;99.90;;;;;;5031182;28;20043;-87
2023/04/12 08:44:35;;;;;;;1.92;0.30;;;9.40;99.90;;;;;;5032771;28;20093;-85
2023/04/12 08:47:05;;;;;;;2.05;0.40;;;9.50;99.90;;;;;;5033308;28;20036;-86
2023/04/12 08:49:33;;;;;;;2.42;0.30;;;9.40;99.90;;;;;;5029299;28;20028;-85
2023/04/12 08:52:07;;;;;;;1.58;0.40;;;9.50;99.90;;;;;;5029874;28;20461;-87
2023/04/12 08:54:33;;;;;;;1.90;0.30;;;9.60;99.90;;;;;;5047899;28;20029;-87
2023/04/12 08:57:07;;;;;;;2.23;0.30;;;9.50;99.90;;;;;;5045488;28;20028;-85
2023/04/12 08:59:41;;;;;;;3.47;0.30;;;9.40;99.90;;;;;;5032606;28;20287;-86
2023/04/12 09:02:07;;;;;;;2.55;0.30;;;9.50;99.90;;;;;;5046043;28;20028;-86
2023/04/12 09:04:33;;;;;;;2.03;0.35;;;9.40;99.90;;;;;;5031186;28;20074;-86
2023/04/12 09:06:58;;;;;;;2.00;0.25;;;9.60;99.90;;;;;;5032828;28;20017;-87
2023/04/12 09:09:44;;;;;;;0.88;0.10;;;9.70;99.90;;;;;;5031317;28;20452;-86
2023/04/12 09:12:11;;;;;;;1.40;0.20;;;10.00;99.90;;;;;;5031146;28;20532;-88
2023/04/12 09:14:38;;;;;;;2.92;0.40;;;10.20;99.90;;;;;;5032799;28;20021;-88
2023/04/12 09:17:04;;;;;;;6.00;0.38;;;10.10;99.90;;;;;;5068041;28;20042;-85
2023/04/12 09:19:35;;;;;;;4.72;0.52;;;10.20;99.90;;;;;;5044931;28;20060;-87
2023/04/12 09:22:01;;;;;;;5.75;0.47;;;10.10;99.90;;;;;;5050539;28;20064;-85
2023/04/12 09:24:28;;;;;;;3.47;0.47;;;10.10;99.90;;;;;;5035726;28;20059;-85
2023/04/12 09:27:05;;;;;;;5.00;0.40;;;10.10;99.90;;;;;;5035140;28;20021;-85
2023/04/12 09:29:32;;;;;;;3.60;0.70;;;10.20;99.90;;;;;;5036003;28;20086;-88
2023/04/12 09:32:00;;;;;;;3.00;0.20;;;10.60;99.90;;;;;;5035937;28;20024;-86
2023/04/12 09:34:29;;;;;;;2.08;0.20;;;10.90;99.90;;;;;;5036567;28;20094;-86
2023/04/12 09:36:55;;;;;;;1.52;0.20;;;11.10;99.90;;;;;;5068207;28;20074;-89
2023/04/12 09:39:34;;;;;;;1.02;0.20;;;11.40;99.90;;;;;;5067307;28;20032;-86
2023/04/12 09:42:07;;;;;;;3.17;0.20;;;11.50;99.90;;;;;;5051323;28;20280;-87
2023/04/12 09:44:33;;;;;;;2.90;0.25;;;11.40;99.90;;;;;;5047958;28;20476;-85
2023/04/12 09:47:04;;;;;;;8.38;0.63;;;11.60;99.90;;;;;;5054105;28;20025;-89
2023/04/12 09:49:37;;;;;;;3.65;0.30;;;11.60;99.90;;;;;;5070272;28;20428;-90
2023/04/12 09:52:05;;;;;;;1.92;0.40;;;11.70;99.90;;;;;;5064984;28;20042;-89
2023/04/12 09:54:45;;;;;;;2.88;0.20;;;11.80;99.90;;;;;;5084363;28;20047;-89
2023/04/12 09:57:12;;;;;;;1.13;0.20;;;11.90;99.90;;;;;;5032988;28;20047;-89
2023/04/12 09:59:40;;;;;;;2.80;0.30;;;11.90;99.90;;;;;;5064230;28;20043;-89
2023/04/12 10:02:17;;;;;;;4.00;0.30;;;11.90;99.90;;;;;;5067275;28;20101;-88
2023/04/12 10:04:44;;;;;;;4.45;0.57;;;12.00;99.90;;;;;;5068063;28;21865;-91
2023/04/12 10:07:11;;;;;;;5.25;0.45;;;12.30;99.90;;;;;;5034548;28;20059;-88
2023/04/12 10:09:40;;;;;;;5.60;0.43;;;12.60;99.90;;;;;;5053282;28;20025;-93
2023/04/12 10:12:08;;;;;;;5.85;0.40;;;12.30;99.90;;;;;;5030669;28;20027;-90
2023/04/12 10:14:34;;;;;;;6.53;0.52;;;12.20;99.90;;;;;;5034866;28;20072;-89
2023/04/12 10:17:02;;;;;;;2.95;0.40;;;12.10;99.90;;;;;;5034955;28;20033;-93
2023/04/12 10:19:29;;;;;;;3.22;0.40;;;12.40;99.90;;;;;;5052356;28;20437;-91
2023/04/12 10:21:56;;;;;;;3.67;0.30;;;12.80;99.90;;;;;;5034701;28;20830;-90
2023/04/12 10:24:23;;;;;;;6.95;0.40;;;13.00;99.90;;;;;;5041339;28;20032;-86
2023/04/12 10:26:49;;;;;;;7.80;0.70;;;12.80;99.90;;;;;;5034647;28;20021;-86
2023/04/12 10:29:23;;;;;;;7.22;0.40;;;12.20;99.90;;;;;;5036428;28;20034;-92
2023/04/12 10:31:49;;;;;;;6.32;0.60;;;12.50;99.90;;;;;;5033649;28;20552;-91
2023/04/12 10:34:15;;;;;;;5.00;0.43;;;12.30;99.90;;;;;;5036184;28;20032;-90
2023/04/12 10:36:51;;;;;;;5.47;0.60;;;12.20;99.90;;;;;;5034790;28;20100;-90
2023/04/12 10:39:17;;;;;;;10.57;0.95;;;12.40;99.90;;;;;;5031042;28;20037;-87
2023/04/12 10:42:38;;;;;;;8.32;0.80;;;12.10;99.90;;;;;;5036529;28;20045;-88
2023/04/12 10:45:21;;;;;;;8.85;0.73;;;11.90;99.90;;;;;;4955961;28;20076;-87
2023/04/12 10:47:47;;;;;;;10.15;1.17;;;11.90;99.90;;;;;;4954193;28;20472;-87
2023/04/12 10:50:25;;;;;;;6.55;0.50;;;11.80;99.90;;;;;;4987247;28;20088;-91
2023/04/12 10:53:16;;;;;;;10.15;0.60;;;11.60;99.90;;;;;;4969411;28;20041;-91
2023/04/12 10:55:43;;;;;;;6.80;0.40;;;11.90;99.90;;;;;;4978175;28;20038;-85
2023/04/12 10:58:10;;;;;;;7.03;0.65;;;12.30;99.90;;;;;;4985896;28;20505;-92
2023/04/12 11:00:55;;;;;;;6.22;0.60;;;12.00;99.90;;;;;;4954964;28;20053;-87
2023/04/12 11:03:21;;;;;;;4.90;0.50;;;12.10;99.90;;;;;;4963204;28;20035;-92
2023/04/12 11:06:03;;;;;;;5.20;0.50;;;12.60;99.90;;;;;;4949887;28;20490;-91
2023/04/12 11:08:48;;;;;;;4.78;0.50;;;13.30;99.90;;;;;;4974157;28;20110;-92
2023/04/12 11:11:25;;;;;;;6.60;0.50;;;14.30;99.90;;;;;;4966701;28;20035;-90
2023/04/12 11:13:54;;;;;;;7.45;0.60;;;14.60;99.90;;;;;;4955992;28;20034;-91
2023/04/12 11:16:20;;;;;;;4.72;0.68;;;13.80;99.90;;;;;;4952230;28;20113;-92
2023/04/12 11:18:46;;;;;;;4.88;0.45;;;13.80;99.90;;;;;;5010137;28;20703;-91
2023/04/12 11:21:12;;;;;;;4.25;0.40;;;13.60;99.90;;;;;;5034452;28;20051;-93
2023/04/12 11:23:39;;;;;;;8.48;1.02;;;13.40;99.90;;;;;;5033001;28;20424;-91
2023/04/12 11:26:05;;;;;;;5.50;0.50;;;12.60;99.90;;;;;;5035269;28;20021;-91
2023/04/12 11:28:31;;;;;;;11.02;0.60;;;12.70;99.90;;;;;;5030954;28;20534;-91
2023/04/12 11:30:57;;;;;;;8.93;2.25;;;12.50;99.90;;;;;;5031211;28;20025;-91
2023/04/12 11:33:40;;;;;;;5.70;0.52;;;12.70;99.90;;;;;;5033837;28;20495;-90
2023/04/12 11:36:13;;;;;;;7.68;0.70;;;12.70;99.90;;;;;;5028685;28;20115;-88
2023/04/12 11:38:39;;;;;;;5.15;0.50;;;12.50;99.90;;;;;;5046319;28;20472;-89
2023/04/12 11:41:07;;;;;;;7.22;0.50;;;12.50;99.90;;;;;;5029995;28;20597;-89
2023/04/12 11:43:34;;;;;;;5.85;0.70;;;12.50;99.90;;;;;;5033169;28;20044;-91
2023/04/12 11:46:00;;;;;;;3.50;0.30;;;12.50;99.90;;;;;;5041685;28;20067;-91
2023/04/12 11:48:29;;;;;;;3.22;0.70;;;12.40;99.90;;;;;;5033977;28;20028;-90
2023/04/12 11:50:56;;;;;;;3.80;0.35;;;12.30;99.90;;;;;;5050515;28;20080;-91
2023/04/12 11:53:28;;;;;;;4.40;0.40;;;12.20;99.90;;;;;;5030417;28;20078;-90
2023/04/12 11:55:57;;;;;;;3.63;0.30;;;12.40;99.90;;;;;;5031118;28;20029;-85
2023/04/12 11:58:26;;;;;;;3.53;0.40;;;12.60;99.90;;;;;;5029753;28;20514;-88
2023/04/12 12:00:52;;;;;;;6.27;0.50;;;12.80;99.90;;;;;;5034851;28;20029;-91
2023/04/12 12:03:19;;;;;;;8.43;0.80;;;12.80;99.90;;;;;;5045621;28;20119;-90
2023/04/12 12:05:45;;;;;;;9.13;0.82;;;12.60;99.90;;;;;;5031219;28;20048;-88
2023/04/12 12:08:11;;;;;;;5.93;0.95;;;12.60;99.90;;;;;;5049326;28;20074;-89
2023/04/12 12:10:39;;;;;;;8.20;0.70;;;12.30;99.90;;;;;;5031370;28;20089;-88
2023/04/12 12:13:12;;;;;;;9.10;0.75;;;12.10;99.90;;;;;;5049809;28;20033;-89
2023/04/12 12:15:38;;;;;;;10.48;0.80;;;12.00;99.90;;;;;;5032376;28;20024;-89
2023/04/12 12:18:08;;;;;;;11.15;0.98;;;11.80;99.90;;;;;;5035676;28;20021;-87
2023/04/12 12:21:00;;;;;;;6.75;0.60;;;11.40;99.90;;;;;;5046317;28;20054;-87
2023/04/12 12:23:32;;;;;;;12.27;0.98;;;10.90;99.90;;;;;;5043228;28;20722;-87
2023/04/12 12:26:02;;;;;;;6.63;0.52;;;10.50;99.90;;;;;;5029113;28;20054;-88
2023/04/12 12:28:28;;;;;;;;;;;10.30;99.90;;;;;;5030793;28;20017;-87
2023/04/12 12:30:56;;;;;;;6.50;0.50;;;10.30;99.90;;;;;;5033379;28;19915;-88
2023/04/12 12:33:22;;;;;;;7.65;0.85;;;10.30;99.90;;;;;;5030994;28;20024;-86
2023/04/12 12:35:57;;;;;;;8.55;1.00;;;10.30;99.90;;;;;;5030909;28;20506;-87
2023/04/12 12:38:23;;;;;;;8.23;0.73;;;10.30;99.90;;;;;;5030307;28;20039;-87
2023/04/12 12:40:49;;;;;;;11.18;0.70;;;10.40;99.90;;;;;;5028745;28;20119;-85
2023/04/12 12:43:22;;;;;;;9.18;0.43;;;10.30;99.90;;;;;;5034360;28;20391;-88
2023/04/12 12:45:47;;;;;;;3.75;0.60;;;10.30;99.90;;;;;;5062590;28;20108;-87
2023/04/12 12:48:13;;;;;;;5.88;0.30;;;10.20;99.90;;;;;;5050120;28;20083;-89
2023/04/12 12:50:39;;;;;;;3.25;0.40;;;10.20;99.90;;;;;;5031392;28;20032;-87
2023/04/12 12:53:05;;;;;;;2.90;0.57;;;10.40;99.90;;;;;;5064127;28;20028;-89
2023/04/12 12:55:31;;;;;;;3.97;0.38;;;10.50;99.90;;;;;;5030864;28;20028;-87
2023/04/12 12:57:58;;;;;;;3.33;0.20;;;10.80;99.90;;;;;;5033829;28;20052;-89
2023/04/12 13:00:25;;;;;;;1.98;0.10;;;11.00;99.90;;;;;;5031877;28;20040;-89